createdAt,value
2022-08-11T00:01:47.558Z,20.73
2022-08-11T00:04:52.191Z,20.75
2022-08-11T00:07:58.376Z,20.70
2022-08-11T00:11:04.429Z,20.66
2022-08-11T00:14:19.763Z,20.56
2022-08-11T00:17:29.908Z,20.47
2022-08-11T00:20:39.735Z,20.50
2022-08-11T00:23:45.656Z,20.55
2022-08-11T00:26:51.000Z,20.50
2022-08-11T00:29:54.935Z,20.37
2022-08-11T00:32:59.790Z,20.22
2022-08-11T00:36:05.410Z,20.14
2022-08-11T00:39:11.555Z,20.20
2022-08-11T00:42:27.491Z,20.18
2022-08-11T00:45:36.922Z,20.14
2022-08-11T00:48:51.477Z,20.09
2022-08-11T00:52:18.665Z,19.88
2022-08-11T00:56:10.512Z,19.91
2022-08-11T00:59:56.315Z,19.84
2022-08-11T01:03:21.626Z,19.76
2022-08-11T01:07:06.914Z,19.67
2022-08-11T01:10:56.602Z,19.53
2022-08-11T01:14:50.499Z,19.34
2022-08-11T01:18:38.224Z,19.07
2022-08-11T01:22:50.167Z,19.00
2022-08-11T01:26:39.359Z,19.03
2022-08-11T01:30:37.182Z,18.93
2022-08-11T01:34:18.936Z,18.98
2022-08-11T01:38:05.761Z,18.97
2022-08-11T01:41:53.073Z,18.84
2022-08-11T01:45:16.040Z,18.74
2022-08-11T01:48:40.546Z,18.72
2022-08-11T01:52:04.627Z,18.66
2022-08-11T01:55:21.995Z,18.63
2022-08-11T01:58:43.697Z,18.54
2022-08-11T02:02:45.887Z,18.51
2022-08-11T02:06:01.600Z,18.43
2022-08-11T02:09:14.483Z,18.41
2022-08-11T02:12:42.266Z,18.40
2022-08-11T02:16:16.734Z,18.36
2022-08-11T02:19:50.935Z,18.32
2022-08-11T02:23:58.766Z,18.33
2022-08-11T02:26:48.251Z,18.37
2022-08-11T02:30:05.060Z,18.39
2022-08-11T02:33:23.225Z,18.38
2022-08-11T02:36:38.070Z,18.34
2022-08-11T02:39:56.924Z,18.33
2022-08-11T02:43:11.132Z,18.31
2022-08-11T02:46:30.214Z,18.26
2022-08-11T02:50:02.662Z,18.28
2022-08-11T02:53:18.377Z,18.26
2022-08-11T02:56:44.478Z,18.31
2022-08-11T02:59:55.170Z,18.27
2022-08-11T03:03:16.387Z,18.23
2022-08-11T03:06:35.613Z,18.16
2022-08-11T03:09:48.340Z,18.05
2022-08-11T03:13:16.641Z,17.97
2022-08-11T03:16:44.397Z,17.84
2022-08-11T03:20:02.988Z,17.71
2022-08-11T03:23:19.688Z,17.63
2022-08-11T03:26:48.485Z,17.68
2022-08-11T03:30:06.797Z,17.72
2022-08-11T03:33:41.887Z,17.65
2022-08-11T03:37:37.862Z,17.65
2022-08-11T03:42:01.824Z,17.66
2022-08-11T03:45:04.457Z,17.61
2022-08-11T03:48:21.154Z,17.60
2022-08-11T03:51:51.487Z,17.54
2022-08-11T03:55:07.461Z,17.46
2022-08-11T03:58:46.729Z,17.46
2022-08-11T04:02:28.535Z,17.39
2022-08-11T04:06:22.063Z,17.34
2022-08-11T04:10:03.098Z,17.30
2022-08-11T04:13:55.606Z,17.35
2022-08-11T04:17:38.207Z,17.35
2022-08-11T04:21:04.028Z,17.35
2022-08-11T04:24:52.492Z,17.45
2022-08-11T04:28:31.545Z,17.51
2022-08-11T04:31:49.576Z,17.51
2022-08-11T04:35:20.613Z,17.52
2022-08-11T04:38:47.014Z,17.60
2022-08-11T04:42:32.677Z,17.60
2022-08-11T04:46:07.506Z,17.58
2022-08-11T04:49:54.063Z,17.68
2022-08-11T04:53:46.274Z,17.68
2022-08-11T04:57:23.880Z,17.83
2022-08-11T05:00:52.344Z,17.97
2022-08-11T05:05:04.786Z,18.12
2022-08-11T05:08:38.544Z,18.13
2022-08-11T05:12:24.387Z,18.22
2022-08-11T05:15:59.913Z,18.28
2022-08-11T05:19:22.686Z,18.41
2022-08-11T05:22:48.980Z,18.49
2022-08-11T05:26:48.023Z,18.53
2022-08-11T05:30:01.805Z,18.59
2022-08-11T05:33:33.071Z,18.68
2022-08-11T05:36:45.247Z,18.74
2022-08-11T05:40:14.040Z,18.79
2022-08-11T05:43:35.373Z,18.88
2022-08-11T05:46:59.314Z,18.90
2022-08-11T05:50:31.036Z,18.97
2022-08-11T05:53:52.538Z,19.14
2022-08-11T05:57:00.323Z,19.18
2022-08-11T06:00:10.175Z,19.37
2022-08-11T06:03:26.333Z,19.49
2022-08-11T06:06:30.465Z,19.60
2022-08-11T06:09:35.961Z,19.78
2022-08-11T06:12:41.545Z,19.83
2022-08-11T06:15:47.561Z,19.86
2022-08-11T06:18:51.185Z,19.92
2022-08-11T06:21:55.461Z,20.00
2022-08-11T06:25:01.492Z,20.13
2022-08-11T06:28:08.730Z,20.22
2022-08-11T06:31:18.017Z,20.35
2022-08-11T06:34:36.882Z,20.56
2022-08-11T06:37:59.075Z,20.72
2022-08-11T06:41:26.612Z,20.85
2022-08-11T06:44:35.023Z,21.01
2022-08-11T06:47:45.195Z,21.10
2022-08-11T06:51:11.773Z,21.24
2022-08-11T06:54:16.027Z,21.40
2022-08-11T06:57:38.300Z,21.52
2022-08-11T07:00:43.422Z,21.69
2022-08-11T07:03:49.793Z,21.84
2022-08-11T07:07:31.958Z,22.03
2022-08-11T07:11:07.593Z,22.27
2022-08-11T07:14:35.057Z,22.47
2022-08-11T07:17:49.332Z,22.55
2022-08-11T07:21:59.925Z,22.75
2022-08-11T07:25:15.207Z,22.98
2022-08-11T07:28:41.964Z,23.17
2022-08-11T07:31:51.108Z,23.31
2022-08-11T07:35:01.533Z,23.54
2022-08-11T07:38:09.283Z,23.82
2022-08-11T07:41:15.503Z,24.06
2022-08-11T07:44:19.459Z,24.26
2022-08-11T07:47:41.321Z,24.48
2022-08-11T07:51:04.500Z,24.80
2022-08-11T07:54:17.053Z,24.94
2022-08-11T07:58:14.188Z,25.00
2022-08-11T08:01:22.539Z,25.12
2022-08-11T08:04:47.223Z,25.28
2022-08-11T08:08:09.525Z,25.31
2022-08-11T08:11:30.797Z,25.43
2022-08-11T08:14:52.625Z,25.47
2022-08-11T08:18:20.352Z,25.80
2022-08-11T08:21:21.189Z,26.00
2022-08-11T08:24:26.697Z,26.13
2022-08-11T08:27:30.123Z,26.36
2022-08-11T08:30:51.085Z,26.45
2022-08-11T08:33:55.133Z,26.57
2022-08-11T08:36:58.788Z,26.72
2022-08-11T08:40:03.319Z,26.91
2022-08-11T08:43:10.970Z,27.05
2022-08-11T08:46:15.309Z,27.28
2022-08-11T08:49:23.508Z,27.50
2022-08-11T08:52:32.082Z,27.53
2022-08-11T08:55:45.310Z,27.64
2022-08-11T08:58:51.567Z,27.76
2022-08-11T09:02:00.988Z,27.91
2022-08-11T09:05:05.832Z,27.98
2022-08-11T09:08:09.907Z,28.16
2022-08-11T09:11:32.960Z,28.34
2022-08-11T09:14:56.257Z,28.39
2022-08-11T09:18:06.475Z,28.30
2022-08-11T09:21:09.683Z,28.61
2022-08-11T09:24:30.995Z,28.58
2022-08-11T09:27:37.851Z,28.63
2022-08-11T09:30:43.604Z,28.81
2022-08-11T09:33:47.645Z,28.99
2022-08-11T09:37:08.804Z,29.38
2022-08-11T09:40:30.216Z,29.27
2022-08-11T09:43:54.193Z,29.50
2022-08-11T09:46:59.512Z,29.85
2022-08-11T09:50:04.121Z,29.84
2022-08-11T09:53:36.255Z,30.03
2022-08-11T09:56:50.959Z,30.38
2022-08-11T10:00:12.316Z,30.47
2022-08-11T10:03:21.428Z,30.31
2022-08-11T10:06:43.382Z,30.28
2022-08-11T10:09:51.905Z,30.43
2022-08-11T10:13:02.979Z,30.53
2022-08-11T10:16:16.137Z,30.33
2022-08-11T10:19:22.422Z,30.68
2022-08-11T10:22:43.797Z,30.62
2022-08-11T10:26:05.268Z,29.78
2022-08-11T10:29:25.062Z,29.31
2022-08-11T10:32:58.698Z,29.41
2022-08-11T10:36:03.727Z,29.96
2022-08-11T10:39:22.047Z,30.50
2022-08-11T10:42:57.137Z,30.37
2022-08-11T10:46:18.861Z,29.98
2022-08-11T10:49:35.058Z,29.84
2022-08-11T10:52:57.679Z,30.34
2022-08-11T10:56:19.001Z,30.28
2022-08-11T10:59:24.112Z,30.51
2022-08-11T11:02:28.162Z,30.74
2022-08-11T11:05:33.836Z,31.14
2022-08-11T11:08:57.689Z,31.41
2022-08-11T11:12:35.894Z,31.27
2022-08-11T11:16:01.620Z,31.41
2022-08-11T11:19:10.052Z,31.56
2022-08-11T11:22:34.736Z,31.19
2022-08-11T11:26:07.291Z,31.70
2022-08-11T11:29:32.943Z,31.36
2022-08-11T11:32:49.579Z,31.60
2022-08-11T11:36:05.844Z,31.75
2022-08-11T11:39:10.837Z,31.80
2022-08-11T11:42:15.521Z,31.88
2022-08-11T11:45:22.747Z,31.55
2022-08-11T11:48:28.848Z,32.21
2022-08-11T11:51:32.604Z,32.94
2022-08-11T11:54:38.816Z,33.51
2022-08-11T11:58:02.667Z,32.90
2022-08-11T12:01:20.043Z,33.03
2022-08-11T12:04:24.022Z,33.09
2022-08-11T12:07:45.018Z,32.81
2022-08-11T12:11:22.017Z,33.08
2022-08-11T12:14:27.591Z,32.90
2022-08-11T12:17:31.054Z,33.20
2022-08-11T12:20:34.444Z,32.80
2022-08-11T12:24:04.107Z,33.30
2022-08-11T12:27:25.489Z,33.69
2022-08-11T12:30:29.896Z,34.19
2022-08-11T12:33:35.172Z,33.25
2022-08-11T12:36:43.269Z,33.68
2022-08-11T12:40:16.285Z,33.88
2022-08-11T12:43:56.863Z,33.22
2022-08-11T12:47:03.022Z,33.80
2022-08-11T12:50:25.946Z,33.72
2022-08-11T12:53:33.054Z,34.28
2022-08-11T12:57:00.173Z,34.25
2022-08-11T13:00:25.415Z,34.07
2022-08-11T13:03:51.992Z,34.25
2022-08-11T13:06:59.936Z,34.20
2022-08-11T13:10:06.576Z,34.76
2022-08-11T13:13:54.419Z,34.14
2022-08-11T13:16:54.150Z,34.04
2022-08-11T13:19:59.229Z,34.31
2022-08-11T13:23:03.145Z,34.60
2022-08-11T13:26:08.027Z,34.85
2022-08-11T13:29:11.839Z,34.50
2022-08-11T13:32:17.409Z,34.39
2022-08-11T13:35:21.381Z,35.29
2022-08-11T13:38:26.299Z,35.27
2022-08-11T13:41:41.020Z,35.14
2022-08-11T13:44:44.851Z,35.21
2022-08-11T13:47:50.038Z,35.01
2022-08-11T13:51:10.747Z,34.97
2022-08-11T13:54:19.148Z,35.72
2022-08-11T13:58:18.179Z,36.00
2022-08-11T14:00:52.542Z,36.52
2022-08-11T14:04:30.552Z,35.64
2022-08-11T14:07:35.941Z,35.64
2022-08-11T14:10:40.112Z,34.89
2022-08-11T14:13:48.151Z,35.11
2022-08-11T14:16:55.376Z,35.46
2022-08-11T14:20:38.441Z,36.05
2022-08-11T14:23:30.274Z,36.13
2022-08-11T14:26:38.834Z,36.23
2022-08-11T14:29:49.187Z,36.27
2022-08-11T14:32:55.504Z,35.39
2022-08-11T14:36:00.898Z,34.33
2022-08-11T14:39:08.806Z,34.85
2022-08-11T14:42:33.522Z,35.37
2022-08-11T14:45:58.821Z,36.68
2022-08-11T14:49:02.748Z,36.07
2022-08-11T14:52:11.333Z,35.70
2022-08-11T14:55:33.184Z,35.58
2022-08-11T14:58:37.774Z,35.46
2022-08-11T15:01:59.655Z,35.34
2022-08-11T15:05:04.916Z,35.38
2022-08-11T15:08:10.164Z,35.20
2022-08-11T15:11:29.439Z,35.65
2022-08-11T15:14:50.309Z,35.58
2022-08-11T15:18:01.696Z,35.15
2022-08-11T15:21:23.499Z,35.23
2022-08-11T15:24:31.034Z,35.48
2022-08-11T15:27:53.107Z,35.46
2022-08-11T15:31:16.297Z,35.66
2022-08-11T15:34:43.604Z,35.50
2022-08-11T15:37:48.182Z,33.91
2022-08-11T15:41:19.450Z,34.40
2022-08-11T15:45:01.566Z,34.89
2022-08-11T15:48:10.873Z,35.29
2022-08-11T15:51:25.484Z,35.10
2022-08-11T15:54:33.165Z,33.56
2022-08-11T15:57:56.998Z,34.00
2022-08-11T16:01:31.215Z,33.54
2022-08-11T16:04:38.321Z,33.20
2022-08-11T16:07:42.593Z,33.13
2022-08-11T16:10:47.305Z,32.43
2022-08-11T16:14:15.092Z,32.50
2022-08-11T16:17:20.677Z,32.30
2022-08-11T16:20:28.202Z,31.99
2022-08-11T16:23:31.468Z,31.94
2022-08-11T16:27:08.420Z,31.74
2022-08-11T16:30:05.815Z,31.82
2022-08-11T16:33:49.204Z,31.46
2022-08-11T16:36:53.045Z,31.45
2022-08-11T16:39:56.282Z,31.26
2022-08-11T16:43:17.796Z,31.39
2022-08-11T16:46:41.004Z,31.13
2022-08-11T16:49:52.570Z,31.10
2022-08-11T16:52:56.049Z,30.63
2022-08-11T16:56:03.465Z,30.45
2022-08-11T16:59:17.880Z,29.96
2022-08-11T17:02:40.061Z,30.22
2022-08-11T17:06:05.352Z,30.21
2022-08-11T17:09:29.153Z,30.16
2022-08-11T17:12:52.810Z,30.05
2022-08-11T17:16:08.111Z,29.88
2022-08-11T17:19:16.190Z,29.69
2022-08-11T17:22:39.089Z,29.73
2022-08-11T17:26:03.706Z,29.85
2022-08-11T17:29:07.279Z,29.70
2022-08-11T17:32:55.845Z,29.38
2022-08-11T17:36:03.907Z,29.28
2022-08-11T17:39:09.001Z,29.28
2022-08-11T17:42:30.468Z,29.09
2022-08-11T17:45:51.332Z,28.79
2022-08-11T17:48:54.588Z,28.82
2022-08-11T17:52:17.187Z,28.87
2022-08-11T17:55:51.902Z,28.61
2022-08-11T17:59:15.877Z,28.58
2022-08-11T18:02:53.661Z,28.45
2022-08-11T18:10:52.164Z,27.87
2022-08-11T18:14:47.401Z,27.63
2022-08-11T18:22:20.515Z,27.31
2022-08-11T18:25:50.074Z,27.01
2022-08-11T18:29:14.735Z,26.93
2022-08-11T18:32:49.658Z,26.65
2022-08-11T18:36:17.420Z,26.56
2022-08-11T18:39:40.954Z,26.33
2022-08-11T18:43:06.222Z,26.43
2022-08-11T18:46:30.307Z,26.20
2022-08-11T18:50:02.279Z,26.13
2022-08-11T18:53:27.899Z,25.96
2022-08-11T18:56:49.911Z,25.70
2022-08-11T19:00:14.408Z,25.81
2022-08-11T19:03:48.359Z,25.69
2022-08-11T19:07:18.697Z,25.49
2022-08-11T19:10:42.354Z,25.26
2022-08-11T19:14:06.032Z,25.16
2022-08-11T19:17:43.912Z,25.05
2022-08-11T19:21:07.799Z,24.90
2022-08-11T19:24:33.291Z,24.72
2022-08-11T19:27:58.312Z,24.66
2022-08-11T19:31:19.256Z,24.48
2022-08-11T19:34:43.860Z,24.45
2022-08-11T19:38:06.136Z,24.38
2022-08-11T19:41:52.115Z,24.19
2022-08-11T19:45:09.795Z,24.10
2022-08-11T19:48:32.263Z,24.04
2022-08-11T19:51:56.144Z,24.05
2022-08-11T19:55:18.346Z,23.79
2022-08-11T19:58:39.837Z,23.63
2022-08-11T20:02:12.451Z,23.54
2022-08-11T20:05:34.095Z,23.45
2022-08-11T20:09:01.400Z,23.34
2022-08-11T20:12:24.419Z,23.18
2022-08-11T20:15:46.185Z,23.22
2022-08-11T20:19:10.425Z,23.21
2022-08-11T20:22:33.218Z,23.08
2022-08-11T20:26:08.435Z,23.22
2022-08-11T20:29:37.418Z,23.40
2022-08-11T20:33:06.322Z,23.49
2022-08-11T20:36:27.815Z,23.50
2022-08-11T20:39:51.128Z,23.48
2022-08-11T20:44:04.967Z,23.46
2022-08-11T20:46:57.492Z,23.39
2022-08-11T20:50:20.449Z,23.44
2022-08-11T20:53:43.697Z,23.34
2022-08-11T20:57:12.648Z,23.47
2022-08-11T21:00:39.606Z,23.40
2022-08-11T21:04:00.926Z,23.52
2022-08-11T21:07:28.617Z,23.55
2022-08-11T21:10:54.427Z,23.52
2022-08-11T21:14:18.812Z,23.48
2022-08-11T21:17:43.534Z,23.43
2022-08-11T21:21:26.946Z,23.33
2022-08-11T21:24:50.622Z,23.22
2022-08-11T21:28:15.456Z,23.19
2022-08-11T21:31:39.051Z,23.18
2022-08-11T21:35:02.443Z,23.16
2022-08-11T21:38:24.550Z,23.11
2022-08-11T21:41:49.066Z,23.01
2022-08-11T21:45:10.731Z,22.95
2022-08-11T21:48:32.087Z,22.83
2022-08-11T21:51:54.341Z,22.81
2022-08-11T21:55:16.718Z,22.79
2022-08-11T21:58:37.833Z,22.77
2022-08-11T22:01:59.192Z,22.68
2022-08-11T22:05:19.676Z,22.67
2022-08-11T22:08:41.781Z,22.60
2022-08-11T22:12:33.689Z,22.62
2022-08-11T22:15:43.327Z,22.54
2022-08-11T22:19:06.379Z,22.37
2022-08-11T22:22:29.922Z,22.28
2022-08-11T22:25:55.061Z,22.17
2022-08-11T22:29:21.250Z,22.23
2022-08-11T22:33:02.995Z,22.08
2022-08-11T22:36:24.627Z,21.96
2022-08-11T22:40:02.443Z,21.95
2022-08-11T22:43:26.431Z,21.64
2022-08-11T22:46:49.127Z,21.53
2022-08-11T22:50:14.411Z,21.46
2022-08-11T22:53:57.150Z,21.37
2022-08-11T22:57:18.507Z,21.25
2022-08-11T23:00:40.557Z,21.01
2022-08-11T23:04:01.666Z,21.00
2022-08-11T23:07:49.385Z,20.94
2022-08-11T23:11:05.127Z,21.00
2022-08-11T23:14:26.194Z,20.89
2022-08-11T23:17:51.727Z,20.87
2022-08-11T23:21:13.149Z,20.75
2022-08-11T23:24:35.211Z,20.80
2022-08-11T23:27:57.147Z,20.84
2022-08-11T23:31:18.902Z,20.70
2022-08-11T23:35:03.689Z,20.68
2022-08-11T23:38:25.826Z,20.76
2022-08-11T23:41:47.194Z,20.82
2022-08-11T23:45:09.634Z,20.75
2022-08-11T23:48:34.297Z,20.77
2022-08-11T23:51:57.993Z,20.79
2022-08-11T23:55:18.419Z,20.78
2022-08-11T23:58:39.338Z,20.71
